Time;durP1;ratioP1;P1;durP2;ratioP2;P2;SDS_P1;SDS_P2;PMS_P1;PMS_P2;Temp;Humidity;BMP_temperature;BMP_pressure;BME280_temperature;BME280_humidity;BME280_pressure;Samples;Min_cycle;Max_cycle;Signal;HPM_P1;HPM_P2
2022/07/26 00:00:31;;;;;;;;;;;;;;;23.66;46.19;98677.59;2619073;54;19946;-69
2022/07/26 00:03:00;;;;;;;;;;;;;;;23.54;46.31;98683.31;2619359;54;19936;-67
2022/07/26 00:05:30;;;;;;;;;;;;;;;23.48;46.28;98687.16;2619545;54;19939;-69
2022/07/26 00:08:12;;;;;;;;;;;;;;;23.42;46.53;98685.56;2619092;47;19947;-67
2022/07/26 00:10:45;;;;;;;;;;;;;;;23.37;46.68;98686.41;2619072;54;19946;-68
2022/07/26 00:13:16;;;;;;;;;;;;;;;23.35;47.15;98687.75;2619802;39;20398;-68
2022/07/26 00:15:47;;;;;;;;;;;;;;;23.36;47.06;98690.19;2619293;54;19943;-68
2022/07/26 00:18:19;;;;;;;;;;;;;;;23.36;46.75;98684.78;2619162;54;19939;-68
2022/07/26 00:20:49;;;;;;;;;;;;;;;23.35;46.83;98693.97;2619239;54;19947;-68
2022/07/26 00:23:19;;;;;;;;;;;;;;;23.34;46.84;98696.94;2619622;54;19946;-68
2022/07/26 00:25:51;;;;;;;;;;;;;;;23.32;47.09;98697.22;2619039;54;19953;-67
2022/07/26 00:28:21;;;;;;;;;;;;;;;23.30;47.31;98702.06;2619610;54;19948;-67
2022/07/26 00:30:50;;;;;;;;;;;;;;;23.24;47.11;98711.28;2620270;39;20377;-68
2022/07/26 00:33:20;;;;;;;;;;;;;;;23.06;47.64;98709.19;2619429;54;19935;-67
2022/07/26 00:35:49;;;;;;;;;;;;;;;23.02;47.84;98708.13;2619878;54;19938;-68
2022/07/26 00:38:19;;;;;;;;;;;;;;;23.01;47.98;98706.53;2620014;54;19946;-68
2022/07/26 00:40:48;;;;;;;;;;;;;;;22.97;47.79;98709.78;2619038;54;20423;-67
2022/07/26 00:43:20;;;;;;;;;;;;;;;22.99;48.25;98717.59;2618789;54;19947;-68
2022/07/26 00:45:50;;;;;;;;;;;;;;;22.90;48.38;98716.50;2619817;54;20054;-67
2022/07/26 00:48:19;;;;;;;;;;;;;;;22.91;48.44;98720.88;2618712;54;19958;-67
2022/07/26 00:50:49;;;;;;;;;;;;;;;22.80;48.74;98720.06;2617779;54;19946;-67
2022/07/26 00:53:20;;;;;;;;;;;;;;;22.80;48.65;98730.03;2618775;54;19939;-68
2022/07/26 00:55:50;;;;;;;;;;;;;;;22.73;48.74;98733.81;2620055;54;20046;-67
2022/07/26 00:58:22;;;;;;;;;;;;;;;22.71;48.63;98729.78;2619533;54;19939;-67
2022/07/26 01:00:52;;;;;;;;;;;;;;;22.68;48.98;98738.41;2618309;54;19950;-69
2022/07/26 01:03:22;;;;;;;;;;;;;;;22.69;49.21;98734.63;2619194;54;19977;-68
2022/07/26 01:05:57;;;;;;;;;;;;;;;22.63;49.13;98730.34;2618786;54;19942;-68
2022/07/26 01:08:26;;;;;;;;;;;;;;;22.61;49.42;98736.00;2619063;54;20007;-69
2022/07/26 01:10:56;;;;;;;;;;;;;;;22.60;49.51;98744.34;2618621;54;19947;-69
2022/07/26 01:13:28;;;;;;;;;;;;;;;22.53;49.71;98743.81;2619633;39;20381;-67
2022/07/26 01:16:03;;;;;;;;;;;;;;;22.51;49.53;98752.19;2620567;54;19939;-66
2022/07/26 01:18:32;;;;;;;;;;;;;;;22.51;49.55;98749.50;2620709;31;20415;-67
2022/07/26 01:21:03;;;;;;;;;;;;;;;22.40;49.67;98751.38;2620210;54;19946;-68
2022/07/26 01:23:45;;;;;;;;;;;;;;;22.30;49.94;98747.91;2620201;54;20438;-68
2022/07/26 01:26:15;;;;;;;;;;;;;;;22.24;50.32;98747.88;2620561;54;19939;-67
2022/07/26 01:28:45;;;;;;;;;;;;;;;22.21;50.45;98759.22;2619959;54;19951;-67
2022/07/26 01:31:14;;;;;;;;;;;;;;;22.11;50.38;98752.97;2619281;47;19946;-67
2022/07/26 01:33:44;;;;;;;;;;;;;;;22.13;50.90;98756.25;2619855;54;19953;-67
2022/07/26 01:36:13;;;;;;;;;;;;;;;22.13;50.73;98751.69;2620577;54;19938;-67
2022/07/26 01:38:46;;;;;;;;;;;;;;;22.11;50.94;98753.78;2623024;54;19985;-66
2022/07/26 01:41:19;;;;;;;;;;;;;;;22.13;50.45;98757.06;2625572;39;20334;-67
2022/07/26 01:44:05;;;;;;;;;;;;;;;22.10;50.98;98756.75;2620332;54;19939;-67
2022/07/26 01:46:36;;;;;;;;;;;;;;;22.07;51.25;98757.28;2619623;54;19997;-66
2022/07/26 01:49:07;;;;;;;;;;;;;;;22.10;50.77;98760.25;2619427;54;20442;-66
2022/07/26 01:51:37;;;;;;;;;;;;;;;22.18;50.87;98764.34;2619811;39;20748;-66
2022/07/26 01:54:09;;;;;;;;;;;;;;;22.16;50.58;98756.50;2619596;54;19966;-66
2022/07/26 01:56:39;;;;;;;;;;;;;;;22.19;51.20;98757.84;2618620;47;19950;-67
2022/07/26 01:59:08;;;;;;;;;;;;;;;22.18;51.01;98759.75;2619405;54;19939;-66
2022/07/26 02:01:38;;;;;;;;;;;;;;;22.19;50.91;98760.56;2619060;54;19943;-66
2022/07/26 02:04:57;;;;;;;;;;;;;;;22.25;50.39;98759.50;2619065;54;20058;-67
2022/07/26 02:06:58;;;;;;;;;;;;;;;22.25;50.76;98759.50;2619951;54;19946;-67
2022/07/26 02:09:30;;;;;;;;;;;;;;;22.22;50.58;98765.41;2619388;39;20888;-67
2022/07/26 02:12:08;;;;;;;;;;;;;;;22.09;50.71;98772.09;2620433;54;20450;-67
2022/07/26 02:14:37;;;;;;;;;;;;;;;22.11;51.07;98769.94;2620903;54;19954;-67
2022/07/26 02:17:07;;;;;;;;;;;;;;;22.10;51.15;98772.91;2621200;39;20311;-68
2022/07/26 02:19:36;;;;;;;;;;;;;;;22.07;51.20;98770.75;2619776;54;19939;-67
2022/07/26 02:22:06;;;;;;;;;;;;;;;22.03;51.42;98775.84;2619049;54;19953;-68
2022/07/26 02:24:38;;;;;;;;;;;;;;;22.05;51.24;98772.91;2619839;54;19953;-68
2022/07/26 02:27:08;;;;;;;;;;;;;;;22.05;50.92;98773.72;2619353;54;19957;-67
2022/07/26 02:29:37;;;;;;;;;;;;;;;22.02;51.18;98768.88;2619290;54;19946;-67
2022/07/26 02:32:07;;;;;;;;;;;;;;;22.04;51.12;98773.97;2619607;54;19938;-69
2022/07/26 02:34:37;;;;;;;;;;;;;;;22.07;50.71;98774.25;2619711;54;19942;-68
2022/07/26 02:37:06;;;;;;;;;;;;;;;22.07;50.75;98774.25;2619686;54;19953;-68
2022/07/26 02:39:38;;;;;;;;;;;;;;;21.99;50.71;98774.78;2618799;54;19946;-68
2022/07/26 02:42:08;;;;;;;;;;;;;;;21.98;50.73;98771.28;2619155;47;19939;-68
2022/07/26 02:44:37;;;;;;;;;;;;;;;21.97;51.00;98774.25;2619661;54;19939;-68
2022/07/26 02:47:07;;;;;;;;;;;;;;;21.98;50.59;98768.59;2619363;54;20430;-68
2022/07/26 02:49:40;;;;;;;;;;;;;;;21.99;50.28;98769.38;2619376;54;19950;-67
2022/07/26 02:52:10;;;;;;;;;;;;;;;22.00;50.72;98765.63;2620493;39;20341;-67
2022/07/26 02:54:42;;;;;;;;;;;;;;;22.02;50.37;98783.13;2618887;47;19953;-68
2022/07/26 02:57:12;;;;;;;;;;;;;;;22.01;50.64;98778.03;2620135;39;20375;-68
2022/07/26 02:59:41;;;;;;;;;;;;;;;21.95;50.49;98779.88;2619748;54;19965;-68
2022/07/26 03:02:11;;;;;;;;;;;;;;;21.89;49.79;98780.97;2619380;54;19951;-68
2022/07/26 03:04:40;;;;;;;;;;;;;;;21.87;50.01;98777.72;2618804;54;19962;-68
2022/07/26 03:07:11;;;;;;;;;;;;;;;21.90;49.65;98773.69;2619734;54;19938;-68
2022/07/26 03:09:44;;;;;;;;;;;;;;;21.92;49.49;98780.44;2618611;54;20442;-67
2022/07/26 03:12:13;;;;;;;;;;;;;;;21.87;49.32;98775.03;2619163;54;19946;-68
2022/07/26 03:14:42;;;;;;;;;;;;;;;21.78;49.24;98773.94;2619480;54;19939;-68
2022/07/26 03:17:12;;;;;;;;;;;;;;;21.79;48.88;98778.25;2619661;54;19973;-68
2022/07/26 03:19:41;;;;;;;;;;;;;;;21.81;49.29;98775.31;2619224;54;19947;-68
2022/07/26 03:22:11;;;;;;;;;;;;;;;21.72;48.99;98777.72;2619444;54;19946;-68
2022/07/26 03:24:40;;;;;;;;;;;;;;;21.49;48.78;98787.03;2619177;54;19939;-68
2022/07/26 03:27:12;;;;;;;;;;;;;;;21.42;49.63;98779.22;2619614;54;19947;-68
2022/07/26 03:29:42;;;;;;;;;;;;;;;21.32;49.92;98781.03;2619169;54;19954;-68
2022/07/26 03:32:11;;;;;;;;;;;;;;;21.25;50.36;98784.78;2619765;39;20338;-68
2022/07/26 03:34:40;;;;;;;;;;;;;;;21.12;50.57;98784.44;2618482;54;19942;-68
2022/07/26 03:37:10;;;;;;;;;;;;;;;20.99;51.20;98789.22;2619028;54;19946;-68
2022/07/26 03:39:39;;;;;;;;;;;;;;;20.82;51.15;98782.38;2619779;54;19946;-68
2022/07/26 03:42:09;;;;;;;;;;;;;;;20.78;51.21;98784.81;2619144;54;19938;-69
2022/07/26 03:44:41;;;;;;;;;;;;;;;20.66;51.18;98784.19;2619389;54;19947;-68
2022/07/26 03:47:11;;;;;;;;;;;;;;;20.61;51.12;98784.94;2618687;47;19969;-68
2022/07/26 03:49:40;;;;;;;;;;;;;;;20.59;50.96;98784.41;2618563;54;19951;-68
2022/07/26 03:52:09;;;;;;;;;;;;;;;20.53;51.47;98786.25;2619443;54;19946;-67
2022/07/26 03:54:39;;;;;;;;;;;;;;;20.44;51.28;98789.63;2619411;54;20430;-68
2022/07/26 03:57:06;;;;;;;;;;;;;;;20.37;51.68;98789.88;2619471;54;19953;-67
2022/07/26 03:59:35;;;;;;;;;;;;;;;20.23;52.28;98778.72;2619655;54;19943;-68
2022/07/26 04:02:07;;;;;;;;;;;;;;;20.23;52.05;98780.59;2591902;54;19951;-67
2022/07/26 04:04:37;;;;;;;;;;;;;;;20.17;52.43;98776.28;2620154;54;19946;-68
2022/07/26 04:07:07;;;;;;;;;;;;;;;20.14;52.74;98782.16;2619599;46;20410;-67
2022/07/26 04:09:37;;;;;;;;;;;;;;;20.12;53.12;98778.91;2620665;54;19946;-67
2022/07/26 04:12:07;;;;;;;;;;;;;;;20.04;52.57;98788.22;2620201;54;19954;-67
2022/07/26 04:14:37;;;;;;;;;;;;;;;20.00;53.37;98785.25;2619760;47;19950;-67
2022/07/26 04:17:09;;;;;;;;;;;;;;;20.07;52.84;98779.66;2620302;54;19962;-67
2022/07/26 04:19:39;;;;;;;;;;;;;;;20.05;52.86;98781.81;2620127;54;19957;-67
2022/07/26 04:22:08;;;;;;;;;;;;;;;19.86;52.85;98792.06;2619839;54;19939;-67
2022/07/26 04:24:37;;;;;;;;;;;;;;;19.80;53.39;98793.09;2620669;54;20050;-67
2022/07/26 04:27:07;;;;;;;;;;;;;;;19.78;53.43;98801.38;2620324;54;19950;-67
2022/07/26 04:29:36;;;;;;;;;;;;;;;19.81;53.09;98808.13;2619760;47;19946;-67
2022/07/26 04:32:08;;;;;;;;;;;;;;;19.82;52.79;98812.41;2620143;54;19946;-67
2022/07/26 04:34:38;;;;;;;;;;;;;;;19.76;52.77;98814.25;2621076;39;20337;-68
2022/07/26 04:37:07;;;;;;;;;;;;;;;19.86;52.92;98813.53;2619637;54;19953;-67
2022/07/26 04:39:37;;;;;;;;;;;;;;;19.93;52.61;98827.56;2620535;54;19938;-66
2022/07/26 04:42:06;;;;;;;;;;;;;;;19.93;52.96;98826.75;2619917;47;19946;-67
2022/07/26 04:44:35;;;;;;;;;;;;;;;19.89;52.95;98821.09;2620815;39;20022;-67
2022/07/26 04:47:05;;;;;;;;;;;;;;;19.94;52.25;98823.00;2620007;54;19939;-67
2022/07/26 04:49:37;;;;;;;;;;;;;;;19.92;52.66;98825.97;2620505;54;19938;-66
2022/07/26 04:52:07;;;;;;;;;;;;;;;19.87;52.38;98822.41;2621145;47;19938;-66
2022/07/26 04:54:36;;;;;;;;;;;;;;;19.96;52.14;98827.06;2620554;54;19954;-66
2022/07/26 04:57:06;;;;;;;;;;;;;;;19.93;52.49;98824.88;2619673;54;19957;-67
2022/07/26 04:59:35;;;;;;;;;;;;;;;19.95;52.23;98821.94;2619424;54;19939;-65
2022/07/26 05:02:05;;;;;;;;;;;;;;;19.99;51.86;98829.22;2619819;54;19966;-65
2022/07/26 05:04:34;;;;;;;;;;;;;;;19.97;51.88;98835.94;2619515;54;19942;-66
2022/07/26 05:07:06;;;;;;;;;;;;;;;19.93;51.78;98837.50;2618755;47;19957;-66
2022/07/26 05:09:36;;;;;;;;;;;;;;;19.92;52.18;98836.69;2619189;54;19946;-65
2022/07/26 05:12:05;;;;;;;;;;;;;;;19.95;52.23;98838.03;2619380;54;19945;-65
2022/07/26 05:14:36;;;;;;;;;;;;;;;19.88;52.02;98838.25;2619912;39;20353;-66
2022/07/26 05:17:06;;;;;;;;;;;;;;;19.82;52.31;98841.13;2619484;54;19950;-68
2022/07/26 05:19:37;;;;;;;;;;;;;;;19.89;51.85;98852.47;2619730;39;20357;-67
2022/07/26 05:22:09;;;;;;;;;;;;;;;19.88;52.33;98859.72;2618816;54;19946;-65
2022/07/26 05:24:38;;;;;;;;;;;;;;;19.92;51.89;98860.00;2619479;54;19961;-65
2022/07/26 05:27:08;;;;;;;;;;;;;;;19.83;52.44;98858.84;2619140;54;19962;-66
2022/07/26 05:29:37;;;;;;;;;;;;;;;19.87;52.51;98859.94;2618310;47;19953;-66
2022/07/26 05:32:07;;;;;;;;;;;;;;;20.01;52.05;98862.00;2619211;54;19950;-66
2022/07/26 05:34:37;;;;;;;;;;;;;;;19.94;52.16;98861.38;2620112;54;19946;-67
2022/07/26 05:37:09;;;;;;;;;;;;;;;19.93;52.01;98861.63;2620785;47;19989;-66
2022/07/26 05:39:39;;;;;;;;;;;;;;;20.04;52.39;98861.50;2621075;54;19939;-67
2022/07/26 05:42:08;;;;;;;;;;;;;;;20.15;51.97;98864.28;2620716;54;19945;-66
2022/07/26 05:44:38;;;;;;;;;;;;;;;20.25;51.73;98873.25;2620455;54;20458;-68
2022/07/26 05:47:11;;;;;;;;;;;;;;;20.32;51.91;98867.66;2619530;54;20449;-68
2022/07/26 05:49:40;;;;;;;;;;;;;;;20.25;51.84;98872.44;2618780;47;19954;-69
2022/07/26 05:52:12;;;;;;;;;;;;;;;20.20;51.55;98873.16;2619343;54;19947;-67
2022/07/26 05:54:41;;;;;;;;;;;;;;;20.16;51.82;98871.25;2619935;39;20346;-67
2022/07/26 05:57:11;;;;;;;;;;;;;;;20.19;51.63;98865.38;2618668;47;19938;-68
2022/07/26 05:59:40;;;;;;;;;;;;;;;20.23;51.95;98861.94;2619597;54;20473;-68
2022/07/26 06:02:10;;;;;;;;;;;;;;;20.29;51.56;98860.94;2619281;54;19947;-67
2022/07/26 06:04:39;;;;;;;;;;;;;;;20.27;51.72;98862.25;2619839;54;19946;-68
2022/07/26 06:07:11;;;;;;;;;;;;;;;20.25;51.59;98864.38;2620120;54;19942;-65
2022/07/26 06:09:41;;;;;;;;;;;;;;;20.20;51.87;98864.31;2621322;54;20399;-67
2022/07/26 06:12:11;;;;;;;;;;;;;;;20.07;52.14;98862.84;2620988;54;19953;-67
2022/07/26 06:14:40;;;;;;;;;;;;;;;20.07;52.01;98857.47;2621214;54;19947;-67
2022/07/26 06:17:09;;;;;;;;;;;;;;;20.11;52.37;98853.22;2620581;47;19946;-65
2022/07/26 06:19:39;;;;;;;;;;;;;;;20.08;52.26;98864.47;2619647;47;19989;-67
2022/07/26 06:22:18;;;;;;;;;;;;;;;20.17;52.42;98871.03;2621150;54;19939;-65
2022/07/26 06:24:47;;;;;;;;;;;;;;;20.13;52.51;98874.47;2619972;47;19938;-65
2022/07/26 06:27:16;;;;;;;;;;;;;;;20.13;52.43;98877.16;2619532;54;19946;-66
2022/07/26 06:29:47;;;;;;;;;;;;;;;20.21;52.07;98871.31;2619623;54;20026;-65
2022/07/26 06:32:16;;;;;;;;;;;;;;;20.33;51.93;98863.09;2620416;39;20609;-65
2022/07/26 06:34:46;;;;;;;;;;;;;;;20.36;52.17;98873.31;2619821;54;19942;-65
2022/07/26 06:37:18;;;;;;;;;;;;;;;20.29;51.98;98871.69;2619131;54;19946;-65
2022/07/26 06:39:47;;;;;;;;;;;;;;;20.31;52.42;98867.91;2619930;54;19947;-64
2022/07/26 06:42:16;;;;;;;;;;;;;;;20.49;52.18;98868.41;2620218;54;19950;-65
2022/07/26 06:44:47;;;;;;;;;;;;;;;20.55;51.56;98858.50;2622121;39;20356;-66
2022/07/26 06:47:16;;;;;;;;;;;;;;;20.55;51.73;98871.94;2621654;54;19938;-66
2022/07/26 06:49:46;;;;;;;;;;;;;;;20.51;51.50;98870.81;2619788;47;19951;-67
2022/07/26 06:52:18;;;;;;;;;;;;;;;20.40;52.12;98875.25;2619983;47;19951;-67
2022/07/26 06:54:47;;;;;;;;;;;;;;;20.52;51.85;98867.06;2621105;54;19947;-66
2022/07/26 06:57:17;;;;;;;;;;;;;;;20.67;51.94;98874.44;2621344;54;19945;-65
2022/07/26 06:59:46;;;;;;;;;;;;;;;20.76;51.54;98878.25;2621385;54;19962;-65
2022/07/26 07:02:16;;;;;;;;;;;;;;;20.77;50.71;98878.00;2621607;54;20454;-66
2022/07/26 07:04:45;;;;;;;;;;;;;;;20.85;50.67;98878.59;2621814;54;19978;-66
2022/07/26 07:07:17;;;;;;;;;;;;;;;20.95;50.80;98884.06;2622175;54;19962;-66
2022/07/26 07:09:47;;;;;;;;;;;;;;;20.91;50.30;98880.28;2622344;54;19946;-66
2022/07/26 07:12:17;;;;;;;;;;;;;;;20.78;50.89;98876.97;2623417;31;20434;-66
2022/07/26 07:14:46;;;;;;;;;;;;;;;20.86;50.89;98882.91;2622501;54;19947;-67
2022/07/26 07:17:20;;;;;;;;;;;;;;;20.92;50.61;98882.69;2621588;54;19950;-67
2022/07/26 07:19:49;;;;;;;;;;;;;;;20.99;50.04;98893.22;2622395;54;19945;-66
2022/07/26 07:22:21;;;;;;;;;;;;;;;20.94;49.96;98877.03;2624499;47;19955;-66
2022/07/26 07:24:51;;;;;;;;;;;;;;;20.99;50.22;98874.41;2625185;54;19951;-68
2022/07/26 07:27:20;;;;;;;;;;;;;;;21.14;50.30;98879.06;2623912;54;19957;-65
2022/07/26 07:29:49;;;;;;;;;;;;;;;21.12;49.89;98868.56;2623179;54;19943;-66
2022/07/26 07:32:19;;;;;;;;;;;;;;;21.03;49.73;98870.94;2623737;54;19947;-66
2022/07/26 07:34:50;;;;;;;;;;;;;;;21.15;50.06;98864.56;2622397;54;19943;-66
2022/07/26 07:37:22;;;;;;;;;;;;;;;21.20;49.68;98869.97;2621681;54;19953;-66
2022/07/26 07:39:51;;;;;;;;;;;;;;;21.31;49.45;98866.28;2621050;54;19943;-66
2022/07/26 07:42:22;;;;;;;;;;;;;;;21.38;49.72;98866.88;2621666;54;19946;-66
2022/07/26 07:44:51;;;;;;;;;;;;;;;21.49;49.83;98870.41;2619445;54;19947;-65
2022/07/26 07:47:21;;;;;;;;;;;;;;;21.48;49.07;98874.19;2620495;54;19946;-66
2022/07/26 07:49:50;;;;;;;;;;;;;;;21.52;49.28;98877.97;2619913;54;19939;-66
2022/07/26 07:52:22;;;;;;;;;;;;;;;21.48;49.52;98879.56;2620238;54;19946;-66
2022/07/26 07:54:51;;;;;;;;;;;;;;;21.45;49.34;98882.78;2619181;54;19946;-66
2022/07/26 07:57:41;;;;;;;;;;;;;;;21.57;48.94;98882.56;2619753;54;19946;-66
2022/07/26 08:00:11;;;;;;;;;;;;;;;21.64;48.82;98875.88;2621255;54;19965;-67
2022/07/26 08:02:44;;;;;;;;;;;;;;;21.82;48.60;98879.97;2620270;54;19953;-67
2022/07/26 08:05:13;;;;;;;;;;;;;;;22.02;48.21;98877.34;2621535;54;19949;-66
2022/07/26 08:07:46;;;;;;;;;;;;;;;22.23;47.87;98872.03;2622430;46;19997;-66
2022/07/26 08:10:15;;;;;;;;;;;;;;;22.19;47.50;98873.63;2629182;39;20044;-67
2022/07/26 08:12:45;;;;;;;;;;;;;;;22.27;46.97;98875.81;2623412;54;19946;-68
2022/07/26 08:15:20;;;;;;;;;;;;;;;22.46;46.73;98878.78;2622611;54;19951;-67
2022/07/26 08:17:50;;;;;;;;;;;;;;;22.64;46.85;98872.84;2619309;54;19951;-67
2022/07/26 08:20:23;;;;;;;;;;;;;;;22.63;46.26;98887.41;2621524;54;19982;-67
2022/07/26 08:22:56;;;;;;;;;;;;;;;22.80;46.31;98887.13;2621855;54;19939;-67
2022/07/26 08:25:25;;;;;;;;;;;;;;;22.97;45.63;98886.88;2623831;54;20043;-67
2022/07/26 08:27:54;;;;;;;;;;;;;;;23.06;45.08;98887.94;2621911;54;19939;-67
2022/07/26 08:30:32;;;;;;;;;;;;;;;23.12;44.93;98884.16;2622668;54;19950;-67
2022/07/26 08:33:01;;;;;;;;;;;;;;;23.21;44.79;98896.00;2623439;54;19958;-67
2022/07/26 08:35:31;;;;;;;;;;;;;;;23.24;44.73;98889.28;2624708;54;19939;-67
2022/07/26 08:38:03;;;;;;;;;;;;;;;23.37;44.46;98880.59;2623850;54;19954;-67
2022/07/26 08:40:34;;;;;;;;;;;;;;;23.44;44.05;98885.72;2622560;54;19953;-67
2022/07/26 08:43:03;;;;;;;;;;;;;;;23.51;43.84;98886.22;2625108;54;19938;-67
2022/07/26 08:45:33;;;;;;;;;;;;;;;23.44;44.12;98891.13;2624064;54;19951;-67
2022/07/26 08:48:03;;;;;;;;;;;;;;;23.45;43.82;98885.44;2624816;54;19953;-67
2022/07/26 08:50:46;;;;;;;;;;;;;;;23.58;43.74;98881.34;2624586;54;19939;-67
2022/07/26 08:53:18;;;;;;;;;;;;;;;23.78;43.66;98890.47;2627951;39;20308;-67
2022/07/26 08:55:47;;;;;;;;;;;;;;;23.90;42.75;98886.38;2625279;54;19949;-67
2022/07/26 08:58:39;;;;;;;;;;;;;;;24.00;43.27;98898.19;2623082;47;20489;-67
2022/07/26 09:01:11;;;;;;;;;;;;;;;24.11;42.26;98894.34;2622858;47;19957;-67
2022/07/26 09:03:41;;;;;;;;;;;;;;;24.08;41.67;98882.22;2621559;54;19946;-66
2022/07/26 09:06:15;;;;;;;;;;;;;;;24.35;41.30;98891.78;2622588;54;19957;-66
2022/07/26 09:08:47;;;;;;;;;;;;;;;24.47;41.46;98894.97;2621170;47;19939;-66
2022/07/26 09:11:33;;;;;;;;;;;;;;;24.59;41.42;98894.63;2620131;54;19938;-66
2022/07/26 09:14:03;;;;;;;;;;;;;;;24.48;40.98;98891.16;2620856;54;19945;-66
2022/07/26 09:16:33;;;;;;;;;;;;;;;24.27;41.55;98895.06;2622748;54;19943;-66
2022/07/26 09:19:20;;;;;;;;;;;;;;;24.03;41.94;98890.34;2621877;54;19950;-65
2022/07/26 09:21:49;;;;;;;;;;;;;;;24.09;41.93;98891.94;2621858;54;19997;-67
2022/07/26 09:24:33;;;;;;;;;;;;;;;23.94;41.65;98894.72;2623389;39;20338;-67
2022/07/26 09:27:04;;;;;;;;;;;;;;;24.04;42.20;98891.94;2619877;54;19946;-66
2022/07/26 09:29:43;;;;;;;;;;;;;;;24.18;41.82;98887.56;2619943;54;19939;-66
2022/07/26 09:32:15;;;;;;;;;;;;;;;24.50;41.21;98890.91;2620387;54;19939;-67
2022/07/26 09:34:45;;;;;;;;;;;;;;;24.54;40.78;98900.06;2621768;54;19939;-66
2022/07/26 09:37:34;;;;;;;;;;;;;;;24.58;40.58;98899.22;2620682;39;20433;-66
2022/07/26 09:40:07;;;;;;;;;;;;;;;24.79;40.08;98893.66;2619969;54;19942;-66
2022/07/26 09:42:37;;;;;;;;;;;;;;;24.88;40.09;98886.53;2620165;54;19947;-66
2022/07/26 09:45:16;;;;;;;;;;;;;;;25.08;39.98;98888.25;2620606;54;19953;-67
2022/07/26 09:47:46;;;;;;;;;;;;;;;25.10;39.93;98886.06;2620235;47;20441;-67
2022/07/26 09:50:16;;;;;;;;;;;;;;;25.36;39.48;98894.75;2619558;47;19970;-67
2022/07/26 09:52:59;;;;;;;;;;;;;;;25.26;38.77;98892.13;2618868;47;19946;-66
2022/07/26 09:55:32;;;;;;;;;;;;;;;25.12;38.35;98898.22;2618771;47;19950;-67
2022/07/26 09:58:13;;;;;;;;;;;;;;;25.31;38.61;98884.78;2620808;39;20348;-67
2022/07/26 10:00:43;;;;;;;;;;;;;;;25.18;38.68;98897.06;2622715;54;19955;-68
2022/07/26 10:03:13;;;;;;;;;;;;;;;25.20;39.08;98894.91;2622757;54;19950;-67
2022/07/26 10:05:42;;;;;;;;;;;;;;;25.26;39.05;98895.66;2621233;54;19947;-67
2022/07/26 10:08:13;;;;;;;;;;;;;;;25.48;37.94;98899.75;2621318;54;19938;-67
2022/07/26 10:10:48;;;;;;;;;;;;;;;25.92;37.63;98892.22;2623196;54;19962;-67
2022/07/26 10:13:17;;;;;;;;;;;;;;;26.25;37.14;98905.00;2621794;54;19947;-67
2022/07/26 10:15:48;;;;;;;;;;;;;;;26.22;37.10;98900.22;2617942;54;19978;-67
2022/07/26 10:18:32;;;;;;;;;;;;;;;26.15;37.13;98900.56;2618471;54;19946;-67
2022/07/26 10:21:19;;;;;;;;;;;;;;;25.93;36.97;98903.84;2618694;54;19942;-67
2022/07/26 10:23:49;;;;;;;;;;;;;;;25.98;36.89;98892.13;2618276;46;19950;-66
2022/07/26 10:26:33;;;;;;;;;;;;;;;25.92;36.68;98899.50;2618707;54;19947;-67
2022/07/26 10:29:18;;;;;;;;;;;;;;;25.68;37.11;98891.41;2618365;54;19939;-66
2022/07/26 10:31:50;;;;;;;;;;;;;;;25.57;37.53;98888.00;2618501;54;20448;-67
2022/07/26 10:34:31;;;;;;;;;;;;;;;25.50;36.92;98889.44;2618293;54;19942;-68
2022/07/26 10:37:02;;;;;;;;;;;;;;;25.56;37.35;98877.47;2618427;54;19939;-66
2022/07/26 10:39:31;;;;;;;;;;;;;;;25.57;36.58;98882.59;2617305;47;19954;-66
2022/07/26 10:42:03;;;;;;;;;;;;;;;25.75;37.39;98880.22;2618478;54;19939;-67
2022/07/26 10:44:33;;;;;;;;;;;;;;;25.94;36.29;98883.78;2618377;54;19973;-67
2022/07/26 10:47:14;;;;;;;;;;;;;;;26.10;36.38;98884.38;2618373;54;19954;-67
2022/07/26 10:49:45;;;;;;;;;;;;;;;26.25;36.61;98869.78;2618115;54;20089;-67
2022/07/26 10:52:16;;;;;;;;;;;;;;;26.31;35.77;98880.28;2618211;54;19945;-67
2022/07/26 10:55:16;;;;;;;;;;;;;;;26.38;35.82;98872.59;2619877;54;19938;-67
2022/07/26 10:57:47;;;;;;;;;;;;;;;26.39;35.13;98868.75;2622096;54;19946;-68
2022/07/26 11:00:26;;;;;;;;;;;;;;;26.36;35.82;98882.09;2621480;54;19950;-67
2022/07/26 11:03:00;;;;;;;;;;;;;;;26.50;34.93;98869.44;2621215;47;19946;-68
2022/07/26 11:05:30;;;;;;;;;;;;;;;26.51;34.94;98864.84;2618562;39;20341;-67
2022/07/26 11:08:03;;;;;;;;;;;;;;;26.36;35.57;98869.34;2619358;54;19938;-67
2022/07/26 11:10:35;;;;;;;;;;;;;;;26.35;35.32;98866.94;2620140;54;20074;-67
2022/07/26 11:13:06;;;;;;;;;;;;;;;26.51;35.14;98871.06;2618761;54;20430;-67
2022/07/26 11:15:36;;;;;;;;;;;;;;;26.62;34.92;98866.28;2617854;47;19965;-66
2022/07/26 11:18:13;;;;;;;;;;;;;;;26.60;34.05;98860.34;2618449;54;19939;-66
2022/07/26 11:20:44;;;;;;;;;;;;;;;26.49;34.51;98875.94;2618210;54;19939;-66
2022/07/26 11:23:37;;;;;;;;;;;;;;;26.54;34.45;98869.66;2618578;54;20433;-66
2022/07/26 11:26:07;;;;;;;;;;;;;;;26.48;34.72;98868.94;2618497;54;20418;-66
2022/07/26 11:29:01;;;;;;;;;;;;;;;26.65;33.89;98862.97;2618447;54;19947;-67
2022/07/26 11:31:39;;;;;;;;;;;;;;;26.49;34.08;98880.56;2618377;54;19938;-67
2022/07/26 11:34:32;;;;;;;;;;;;;;;26.38;34.12;98874.50;2619216;54;20414;-67
2022/07/26 11:37:03;;;;;;;;;;;;;;;26.34;34.28;98868.06;2619364;54;19946;-67
2022/07/26 11:39:33;;;;;;;;;;;;;;;26.33;34.39;98875.38;2619996;39;20337;-68
2022/07/26 11:42:03;;;;;;;;;;;;;;;26.29;34.60;98874.34;2619744;54;20407;-67
2022/07/26 11:44:33;;;;;;;;;;;;;;;26.16;34.48;98875.06;2618727;54;19962;-67
2022/07/26 11:47:11;;;;;;;;;;;;;;;25.93;35.20;98880.28;2618284;54;19939;-67
2022/07/26 11:49:43;;;;;;;;;;;;;;;26.09;34.95;98871.94;2617406;54;19946;-67
2022/07/26 11:52:33;;;;;;;;;;;;;;;26.19;34.47;98869.06;2618255;54;20030;-66
2022/07/26 11:55:02;;;;;;;;;;;;;;;26.17;34.51;98866.66;2618436;54;19947;-67
2022/07/26 11:57:33;;;;;;;;;;;;;;;26.29;34.54;98866.22;2617418;54;19997;-67
2022/07/26 12:00:02;;;;;;;;;;;;;;;26.37;34.20;98864.72;2618066;54;20600;-67
2022/07/26 12:02:41;;;;;;;;;;;;;;;26.33;34.60;98874.53;2617933;54;20429;-67
2022/07/26 12:05:17;;;;;;;;;;;;;;;26.38;34.94;98874.50;2618071;54;19942;-67
2022/07/26 12:07:55;;;;;;;;;;;;;;;26.06;34.67;98872.53;2617933;54;19938;-68
2022/07/26 12:10:24;;;;;;;;;;;;;;;25.85;35.20;98880.13;2618348;39;20361;-67
2022/07/26 12:13:07;;;;;;;;;;;;;;;25.81;35.61;98879.09;2618049;54;19939;-67
2022/07/26 12:15:47;;;;;;;;;;;;;;;25.88;35.52;98872.22;2617609;47;19950;-66
2022/07/26 12:18:23;;;;;;;;;;;;;;;25.91;35.03;98870.81;2618598;39;20322;-66
2022/07/26 12:21:05;;;;;;;;;;;;;;;25.91;34.94;98876.22;2618142;54;19947;-66
2022/07/26 12:23:46;;;;;;;;;;;;;;;26.01;34.49;98867.97;2618168;54;19951;-67
2022/07/26 12:26:20;;;;;;;;;;;;;;;26.24;34.61;98874.41;2617501;54;19950;-68
2022/07/26 12:28:50;;;;;;;;;;;;;;;26.25;34.01;98867.91;2618297;54;19945;-68
2022/07/26 12:31:26;;;;;;;;;;;;;;;26.30;34.03;98859.69;2618306;39;20326;-69
2022/07/26 12:33:55;;;;;;;;;;;;;;;26.30;34.16;98856.19;2617947;54;19973;-68
2022/07/26 12:36:28;;;;;;;;;;;;;;;26.25;33.74;98857.06;2617908;54;20082;-67
2022/07/26 12:38:59;;;;;;;;;;;;;;;26.38;33.44;98863.66;2617952;54;20451;-67
2022/07/26 12:41:32;;;;;;;;;;;;;;;26.34;32.62;98854.50;2617880;54;19954;-67
2022/07/26 12:44:02;;;;;;;;;;;;;;;26.49;32.63;98848.84;2618153;54;19939;-67
2022/07/26 12:46:33;;;;;;;;;;;;;;;26.47;32.27;98855.69;2617955;54;19953;-67
2022/07/26 12:49:03;;;;;;;;;;;;;;;26.47;32.45;98855.69;2618010;54;20517;-67
2022/07/26 12:51:35;;;;;;;;;;;;;;;26.33;32.43;98856.41;2618666;39;20314;-67
2022/07/26 12:54:05;;;;;;;;;;;;;;;26.45;32.64;98853.25;2618214;54;19954;-67
